Terminal Aerodrome Forecast
Issued by NWS Central Illinois

Home | Current Version | Previous Version | Text Only | Print | Product List | Glossary On
Versions: 1 2 3 4 5 6 7 8 9 10 11 12 13 14 15 16 17
438
FTUS43 KILX 100538
TAFSPI
TAF
KSPI 100538Z 1006/1106 VRB03KT P6SM OVC080
     FM101700 16008KT P6SM OVC050
     FM110100 14013KT P6SM OVC100=

USA.gov is the U.S. government's official web portal to all federal, state and local government web resources and services.